Time;durP1;ratioP1;P1;durP2;ratioP2;P2;SDS_P1;SDS_P2;PMS_P1;PMS_P2;Temp;Humidity;BMP_temperature;BMP_pressure;BME280_temperature;BME280_humidity;BME280_pressure;Samples;Min_cycle;Max_cycle;Signal;HPM_P1;HPM_P2
2023/04/17 00:01:43;;;;;;;6.88;5.07;;;;;;;;;;5075431;28;20024;-81
2023/04/17 00:04:09;;;;;;;9.13;5.88;;;;;;;;;;5075338;28;20085;-82
2023/04/17 00:06:38;;;;;;;7.07;5.45;;;;;;;;;;5093606;28;20020;-81
2023/04/17 00:09:04;;;;;;;6.60;4.90;;;;;;;;;;5093459;28;20058;-81
2023/04/17 00:11:29;;;;;;;6.90;5.38;;;;;;;;;;5060197;28;20032;-82
2023/04/17 00:13:55;;;;;;;6.47;4.95;;;;;;;;;;5093558;28;20387;-83
2023/04/17 00:16:20;;;;;;;7.82;5.38;;;;;;;;;;5058460;28;20035;-83
2023/04/17 00:18:45;;;;;;;6.30;4.63;;;;;;;;;;5075286;28;20032;-82
2023/04/17 00:21:11;;;;;;;6.25;4.93;;;;;;;;;;5075148;28;20028;-81
2023/04/17 00:23:36;;;;;;;5.70;4.75;;;;;;;;;;5094348;28;20367;-82
2023/04/17 00:26:01;;;;;;;6.53;5.20;;;;;;;;;;5093123;28;20036;-82
2023/04/17 00:28:27;;;;;;;7.38;4.75;;;;;;;;;;5093133;28;20463;-82
2023/04/17 00:30:52;;;;;;;5.80;4.80;;;;;;;;;;5092893;28;20035;-82
2023/04/17 00:33:18;;;;;;;7.22;4.93;;;;;;;;;;5093096;28;20032;-82
2023/04/17 00:35:43;;;;;;;5.60;4.90;;;;;;;;;;5074948;28;20093;-82
2023/04/17 00:38:08;;;;;;;6.40;4.68;;;;;;;;;;5075115;28;20067;-82
2023/04/17 00:40:34;;;;;;;6.53;5.03;;;;;;;;;;5097565;28;20028;-82
2023/04/17 00:43:00;;;;;;;6.13;4.75;;;;;;;;;;5097678;28;20067;-81
2023/04/17 00:45:26;;;;;;;5.55;4.50;;;;;;;;;;5079040;28;20103;-81
2023/04/17 00:47:52;;;;;;;5.13;4.43;;;;;;;;;;5078839;28;20506;-82
2023/04/17 00:50:17;;;;;;;6.15;4.45;;;;;;;;;;5097017;28;20043;-82
2023/04/17 00:52:43;;;;;;;6.30;4.55;;;;;;;;;;5079190;28;20036;-82
2023/04/17 00:55:09;;;;;;;5.60;4.50;;;;;;;;;;5096952;28;20161;-82
2023/04/17 00:57:35;;;;;;;6.18;4.70;;;;;;;;;;5062078;28;20035;-81
2023/04/17 01:00:00;;;;;;;5.32;4.57;;;;;;;;;;5078650;28;20032;-82
2023/04/17 01:02:26;;;;;;;5.35;4.43;;;;;;;;;;5096722;28;20394;-82
2023/04/17 01:04:51;;;;;;;5.10;4.15;;;;;;;;;;5061818;28;20062;-82
2023/04/17 01:07:17;;;;;;;4.63;4.10;;;;;;;;;;5078559;28;20052;-82
2023/04/17 01:09:42;;;;;;;4.30;3.85;;;;;;;;;;5078665;28;20020;-82
2023/04/17 01:12:19;;;;;;;5.15;4.15;;;;;;;;;;5096569;28;20024;-81
2023/04/17 01:14:44;;;;;;;4.95;3.97;;;;;;;;;;5061438;28;20032;-82
2023/04/17 01:17:13;;;;;;;5.38;4.05;;;;;;;;;;5096373;28;20462;-82
2023/04/17 01:19:39;;;;;;;5.32;4.13;;;;;;;;;;5078793;28;20100;-83
2023/04/17 01:22:04;;;;;;;4.50;4.10;;;;;;;;;;5061568;28;20415;-81
2023/04/17 01:24:29;;;;;;;4.60;4.03;;;;;;;;;;5096347;28;20074;-82
2023/04/17 01:26:55;;;;;;;4.35;3.92;;;;;;;;;;5078044;28;20028;-81
2023/04/17 01:29:20;;;;;;;5.03;4.20;;;;;;;;;;5078166;28;20544;-82
2023/04/17 01:31:46;;;;;;;4.57;3.92;;;;;;;;;;5078374;28;20413;-81
2023/04/17 01:34:11;;;;;;;5.35;4.05;;;;;;;;;;5096510;28;20034;-81
2023/04/17 01:36:36;;;;;;;5.32;4.22;;;;;;;;;;5096567;28;20438;-82
2023/04/17 01:39:02;;;;;;;4.15;3.75;;;;;;;;;;5096622;28;20027;-81
2023/04/17 01:41:28;;;;;;;4.13;3.72;;;;;;;;;;5061246;28;20055;-82
2023/04/17 01:43:53;;;;;;;4.95;3.80;;;;;;;;;;5095978;28;20068;-82
2023/04/17 01:46:19;;;;;;;4.10;3.70;;;;;;;;;;5095779;28;20111;-82
2023/04/17 01:48:44;;;;;;;4.50;3.72;;;;;;;;;;5077615;28;20024;-82
2023/04/17 01:51:09;;;;;;;4.80;4.30;;;;;;;;;;5060834;28;20031;-82
2023/04/17 01:53:36;;;;;;;4.22;3.83;;;;;;;;;;5096982;28;20028;-82
2023/04/17 01:56:02;;;;;;;4.88;3.92;;;;;;;;;;5078213;28;20059;-82
2023/04/17 01:58:27;;;;;;;5.13;4.00;;;;;;;;;;5077612;28;20110;-82
2023/04/17 02:00:53;;;;;;;3.95;3.58;;;;;;;;;;5095530;28;20158;-82
2023/04/17 02:03:18;;;;;;;4.40;3.85;;;;;;;;;;5095610;28;20028;-82
2023/04/17 02:05:45;;;;;;;3.83;3.42;;;;;;;;;;5096009;28;20024;-82
2023/04/17 02:08:10;;;;;;;5.07;3.97;;;;;;;;;;5077382;28;20122;-82
2023/04/17 02:10:36;;;;;;;4.68;4.00;;;;;;;;;;5095584;28;20165;-82
2023/04/17 02:13:01;;;;;;;6.18;3.50;;;;;;;;;;5095569;28;20130;-82
2023/04/17 02:15:27;;;;;;;5.38;4.28;;;;;;;;;;5077272;28;20031;-82
2023/04/17 02:17:52;;;;;;;4.32;3.60;;;;;;;;;;5095085;28;20512;-83
2023/04/17 02:20:17;;;;;;;4.22;3.83;;;;;;;;;;5095516;28;20028;-82
2023/04/17 02:22:43;;;;;;;4.68;3.67;;;;;;;;;;5095466;28;20032;-83
2023/04/17 02:25:08;;;;;;;3.95;3.55;;;;;;;;;;5077436;28;20024;-82
2023/04/17 02:27:34;;;;;;;5.22;3.90;;;;;;;;;;5077097;28;20028;-82
2023/04/17 02:29:59;;;;;;;4.45;4.05;;;;;;;;;;5094921;28;20115;-82
2023/04/17 02:32:25;;;;;;;4.90;3.70;;;;;;;;;;5060043;28;20090;-82
2023/04/17 02:34:51;;;;;;;4.38;3.50;;;;;;;;;;5077398;28;20024;-82
2023/04/17 02:37:16;;;;;;;4.40;3.83;;;;;;;;;;5060312;28;20028;-82
2023/04/17 02:39:42;;;;;;;4.20;3.65;;;;;;;;;;5077292;28;20036;-81
2023/04/17 02:42:07;;;;;;;4.90;3.72;;;;;;;;;;5076951;28;20056;-82
2023/04/17 02:44:32;;;;;;;4.60;3.95;;;;;;;;;;5094766;28;20039;-82
2023/04/17 02:46:58;;;;;;;5.32;4.18;;;;;;;;;;5094853;28;20024;-82
2023/04/17 02:49:23;;;;;;;5.13;4.40;;;;;;;;;;5094650;28;20032;-81
2023/04/17 02:51:48;;;;;;;4.57;3.88;;;;;;;;;;5094616;28;20040;-82
2023/04/17 02:54:14;;;;;;;4.00;3.60;;;;;;;;;;5094528;28;20394;-82
2023/04/17 02:56:39;;;;;;;4.72;4.05;;;;;;;;;;5094813;28;20051;-82
2023/04/17 02:59:04;;;;;;;4.38;3.90;;;;;;;;;;5076604;28;20467;-82
2023/04/17 03:01:30;;;;;;;6.28;4.10;;;;;;;;;;5094022;28;20031;-82
2023/04/17 03:03:55;;;;;;;4.47;3.85;;;;;;;;;;5094401;28;20032;-81
2023/04/17 03:06:22;;;;;;;5.47;3.85;;;;;;;;;;5094332;28;20034;-82
2023/04/17 03:08:49;;;;;;;4.93;3.95;;;;;;;;;;5076354;28;20056;-82
2023/04/17 03:11:14;;;;;;;5.32;4.22;;;;;;;;;;5076248;28;20086;-82
2023/04/17 03:13:40;;;;;;;5.50;4.30;;;;;;;;;;5094393;28;20028;-82
2023/04/17 03:16:06;;;;;;;4.80;3.97;;;;;;;;;;5076402;28;20039;-81
2023/04/17 03:18:31;;;;;;;5.30;3.92;;;;;;;;;;5075919;28;20039;-82
2023/04/17 03:20:57;;;;;;;4.68;4.05;;;;;;;;;;5059545;28;20024;-82
2023/04/17 03:23:22;;;;;;;5.47;4.45;;;;;;;;;;5076080;28;20090;-83
2023/04/17 03:25:48;;;;;;;4.70;3.95;;;;;;;;;;5076134;28;20036;-83
2023/04/17 03:28:14;;;;;;;4.72;4.18;;;;;;;;;;5059103;28;20031;-82
2023/04/17 03:30:39;;;;;;;4.53;4.07;;;;;;;;;;5075581;28;20028;-82
2023/04/17 03:33:05;;;;;;;5.40;4.40;;;;;;;;;;5094122;28;20478;-81
2023/04/17 03:35:30;;;;;;;4.82;4.15;;;;;;;;;;5059121;28;20032;-84
2023/04/17 03:37:56;;;;;;;4.15;3.65;;;;;;;;;;5075961;28;20418;-82
2023/04/17 03:40:21;;;;;;;5.13;4.07;;;;;;;;;;5075682;28;20082;-82
2023/04/17 03:42:47;;;;;;;5.78;4.20;;;;;;;;;;5075645;28;20402;-82
2023/04/17 03:45:13;;;;;;;4.90;4.07;;;;;;;;;;5076098;28;20027;-83
2023/04/17 03:47:39;;;;;;;5.20;4.05;;;;;;;;;;5093321;28;20082;-81
2023/04/17 03:50:05;;;;;;;5.97;4.70;;;;;;;;;;5093547;28;20036;-82
2023/04/17 03:52:30;;;;;;;4.93;4.18;;;;;;;;;;5075498;28;20463;-82
2023/04/17 03:54:56;;;;;;;5.50;4.38;;;;;;;;;;5093214;28;20093;-82
2023/04/17 03:57:22;;;;;;;5.00;4.13;;;;;;;;;;5075392;28;20031;-82
2023/04/17 03:59:47;;;;;;;6.65;4.75;;;;;;;;;;5093019;28;20028;-82
2023/04/17 04:02:13;;;;;;;5.68;4.25;;;;;;;;;;5058299;28;20505;-82
2023/04/17 04:04:38;;;;;;;4.40;4.00;;;;;;;;;;5093181;28;20024;-82
2023/04/17 04:07:03;;;;;;;5.82;4.25;;;;;;;;;;5093585;28;20028;-81
2023/04/17 04:09:29;;;;;;;5.88;4.30;;;;;;;;;;5075502;28;20563;-83
2023/04/17 04:11:56;;;;;;;5.55;4.53;;;;;;;;;;5076367;28;20029;-83
2023/04/17 04:14:21;;;;;;;5.15;4.25;;;;;;;;;;5092827;28;20162;-84
2023/04/17 04:16:47;;;;;;;5.85;4.32;;;;;;;;;;5076030;28;20115;-83
2023/04/17 04:19:12;;;;;;;7.72;4.65;;;;;;;;;;5076156;28;20031;-83
2023/04/17 04:21:43;;;;;;;7.32;4.25;;;;;;;;;;5094507;28;20067;-85
2023/04/17 04:24:12;;;;;;;4.95;4.00;;;;;;;;;;5076821;28;20055;-83
2023/04/17 04:26:39;;;;;;;6.07;4.55;;;;;;;;;;5059604;28;20031;-84
2023/04/17 04:29:05;;;;;;;5.88;4.47;;;;;;;;;;5059080;28;20459;-83
2023/04/17 04:31:30;;;;;;;4.85;4.22;;;;;;;;;;5075351;28;20042;-80
2023/04/17 04:34:00;;;;;;;6.80;4.10;;;;;;;;;;5093330;28;20031;-83
2023/04/17 04:36:28;;;;;;;7.93;4.78;;;;;;;;;;5075564;28;20036;-84
2023/04/17 04:38:58;;;;;;;9.93;5.30;;;;;;;;;;5094588;28;20028;-85
2023/04/17 04:41:25;;;;;;;8.95;5.20;;;;;;;;;;5092841;28;20086;-86
2023/04/17 04:43:52;;;;;;;10.40;4.90;;;;;;;;;;5093441;28;20074;-86
2023/04/17 04:46:17;;;;;;;10.32;5.00;;;;;;;;;;5075095;28;20020;-86
2023/04/17 04:48:43;;;;;;;9.32;4.72;;;;;;;;;;5092458;28;20467;-84
2023/04/17 04:51:08;;;;;;;8.10;4.88;;;;;;;;;;5074396;28;20032;-82
2023/04/17 04:53:34;;;;;;;9.77;5.10;;;;;;;;;;5074690;28;20032;-87
2023/04/17 04:56:00;;;;;;;8.07;5.30;;;;;;;;;;5075117;28;20107;-89
2023/04/17 04:58:28;;;;;;;8.38;5.18;;;;;;;;;;5074722;28;20113;-84
2023/04/17 05:00:53;;;;;;;7.93;4.90;;;;;;;;;;5075224;28;20486;-89
2023/04/17 05:03:21;;;;;;;11.57;5.68;;;;;;;;;;5058439;28;20089;-91
2023/04/17 05:05:46;;;;;;;9.98;4.68;;;;;;;;;;5059327;28;20389;-91
2023/04/17 05:08:12;;;;;;;11.02;5.53;;;;;;;;;;5074920;28;20138;-90
2023/04/17 05:10:38;;;;;;;7.88;5.63;;;;;;;;;;5075172;28;20082;-90
2023/04/17 05:13:03;;;;;;;10.40;5.82;;;;;;;;;;5075204;28;20028;-89
2023/04/17 05:15:29;;;;;;;10.93;5.57;;;;;;;;;;5075195;28;20032;-88
2023/04/17 05:17:54;;;;;;;12.90;5.38;;;;;;;;;;5093070;28;20430;-88
2023/04/17 05:20:20;;;;;;;12.27;5.60;;;;;;;;;;5057957;28;20034;-88
2023/04/17 05:22:45;;;;;;;9.95;5.40;;;;;;;;;;5074838;28;20032;-88
2023/04/17 05:25:11;;;;;;;13.35;5.57;;;;;;;;;;5059504;28;20107;-88
2023/04/17 05:27:36;;;;;;;9.50;5.30;;;;;;;;;;5096561;28;20028;-89
2023/04/17 05:30:02;;;;;;;9.32;5.57;;;;;;;;;;5061905;28;20082;-88
2023/04/17 05:32:30;;;;;;;9.95;5.35;;;;;;;;;;5083566;28;20032;-89
2023/04/17 05:34:55;;;;;;;10.88;5.28;;;;;;;;;;5078199;28;20039;-88
2023/04/17 05:37:21;;;;;;;8.02;4.88;;;;;;;;;;5078248;28;20027;-89
2023/04/17 05:39:46;;;;;;;8.85;5.40;;;;;;;;;;5096289;28;20052;-89
2023/04/17 05:42:11;;;;;;;7.65;4.80;;;;;;;;;;5096236;28;20028;-89
2023/04/17 05:44:38;;;;;;;9.35;5.68;;;;;;;;;;5096057;28;20032;-89
2023/04/17 05:47:03;;;;;;;7.35;4.70;;;;;;;;;;5078149;28;20039;-89
2023/04/17 05:49:28;;;;;;;7.20;5.07;;;;;;;;;;5096035;28;20028;-89
2023/04/17 05:51:54;;;;;;;8.77;5.20;;;;;;;;;;5095741;28;20485;-87
2023/04/17 05:54:19;;;;;;;7.38;4.95;;;;;;;;;;5077832;28;20497;-88
2023/04/17 05:56:45;;;;;;;6.80;4.95;;;;;;;;;;5095794;28;20089;-88
2023/04/17 05:59:10;;;;;;;7.32;4.80;;;;;;;;;;5077826;28;20036;-88
2023/04/17 06:01:36;;;;;;;8.50;4.57;;;;;;;;;;5095809;28;20534;-89
2023/04/17 06:04:01;;;;;;;10.13;5.05;;;;;;;;;;5077533;28;20050;-88
2023/04/17 06:06:27;;;;;;;7.57;5.13;;;;;;;;;;5078154;28;20111;-88
2023/04/17 06:08:56;;;;;;;6.63;4.85;;;;;;;;;;5061144;28;20045;-88
2023/04/17 06:11:22;;;;;;;5.97;4.55;;;;;;;;;;5077990;28;20164;-88
2023/04/17 06:13:47;;;;;;;6.40;4.85;;;;;;;;;;5041661;28;20056;-88
2023/04/17 06:16:12;;;;;;;6.70;4.78;;;;;;;;;;5075659;28;20031;-88
2023/04/17 06:18:39;;;;;;;6.57;4.85;;;;;;;;;;5057358;28;20036;-89
2023/04/17 06:21:08;;;;;;;5.95;4.53;;;;;;;;;;5075208;28;20013;-88
2023/04/17 06:23:33;;;;;;;6.07;4.35;;;;;;;;;;5075569;28;20044;-89
2023/04/17 06:25:58;;;;;;;9.63;5.03;;;;;;;;;;5057072;28;20024;-88
2023/04/17 06:28:24;;;;;;;6.97;4.43;;;;;;;;;;5057101;28;20033;-89
2023/04/17 06:30:49;;;;;;;5.75;4.68;;;;;;;;;;5040324;28;20032;-88
2023/04/17 06:33:15;;;;;;;6.40;5.07;;;;;;;;;;5057153;28;20395;-87
2023/04/17 06:35:40;;;;;;;5.93;4.43;;;;;;;;;;5057337;28;20040;-88
2023/04/17 06:38:06;;;;;;;5.72;4.82;;;;;;;;;;5056848;28;20398;-88
2023/04/17 06:40:31;;;;;;;6.78;5.07;;;;;;;;;;5040589;28;20524;-88
2023/04/17 06:42:57;;;;;;;7.15;5.07;;;;;;;;;;5041059;28;20040;-88
2023/04/17 06:45:22;;;;;;;6.78;4.70;;;;;;;;;;5077280;28;20040;-88
2023/04/17 06:47:48;;;;;;;9.20;4.95;;;;;;;;;;5084170;28;20032;-88
2023/04/17 06:50:14;;;;;;;6.05;4.78;;;;;;;;;;5060753;28;20035;-89
2023/04/17 06:52:39;;;;;;;5.43;4.43;;;;;;;;;;5076517;28;20035;-88
2023/04/17 06:55:05;;;;;;;5.95;4.65;;;;;;;;;;5074949;28;20032;-88
2023/04/17 06:57:32;;;;;;;7.45;5.10;;;;;;;;;;5074580;28;20124;-88
2023/04/17 06:59:58;;;;;;;7.75;4.93;;;;;;;;;;5056605;28;20028;-87
2023/04/17 07:02:23;;;;;;;5.78;4.90;;;;;;;;;;5040135;28;20098;-89
2023/04/17 07:04:49;;;;;;;8.18;5.13;;;;;;;;;;5056302;28;20030;-87
2023/04/17 07:07:14;;;;;;;10.20;6.30;;;;;;;;;;5077309;28;20078;-88
2023/04/17 07:09:41;;;;;;;8.98;5.70;;;;;;;;;;5076410;28;20020;-89
2023/04/17 07:12:07;;;;;;;8.50;5.55;;;;;;;;;;5094811;28;20028;-90
2023/04/17 07:14:34;;;;;;;7.18;5.65;;;;;;;;;;5076971;28;20035;-88
2023/04/17 07:17:00;;;;;;;8.23;5.10;;;;;;;;;;5076508;28;20028;-88
2023/04/17 07:19:25;;;;;;;6.47;5.30;;;;;;;;;;5059854;28;20032;-88
2023/04/17 07:21:50;;;;;;;5.97;5.10;;;;;;;;;;5094620;28;20039;-88
2023/04/17 07:24:16;;;;;;;8.05;5.57;;;;;;;;;;5094483;28;20257;-89
2023/04/17 07:26:42;;;;;;;6.57;4.55;;;;;;;;;;5076167;28;20106;-90
2023/04/17 07:29:07;;;;;;;7.93;5.55;;;;;;;;;;5094123;28;20497;-90
2023/04/17 07:31:33;;;;;;;6.72;5.15;;;;;;;;;;5094138;28;20109;-89
2023/04/17 07:33:59;;;;;;;5.55;4.70;;;;;;;;;;5076246;28;20044;-90
2023/04/17 07:36:26;;;;;;;6.32;4.72;;;;;;;;;;5076016;28;20030;-89
2023/04/17 07:38:51;;;;;;;7.00;4.50;;;;;;;;;;5060228;28;20143;-90
2023/04/17 07:41:16;;;;;;;6.97;5.07;;;;;;;;;;5075771;28;20060;-90
2023/04/17 07:43:42;;;;;;;6.38;4.85;;;;;;;;;;5059567;28;20036;-90
2023/04/17 07:46:07;;;;;;;6.28;4.82;;;;;;;;;;5079368;28;20095;-90
2023/04/17 07:48:33;;;;;;;5.85;5.18;;;;;;;;;;5093974;28;20390;-88
2023/04/17 07:51:00;;;;;;;12.13;5.15;;;;;;;;;;5093956;28;20032;-88
2023/04/17 07:53:27;;;;;;;6.80;5.20;;;;;;;;;;5094323;28;20024;-88
2023/04/17 07:55:53;;;;;;;5.90;4.50;;;;;;;;;;5093969;28;20035;-88
2023/04/17 07:58:19;;;;;;;5.88;4.80;;;;;;;;;;5075846;28;20398;-89
2023/04/17 08:00:44;;;;;;;5.88;4.32;;;;;;;;;;5075841;28;20024;-88
2023/04/17 08:03:09;;;;;;;7.53;5.30;;;;;;;;;;5075566;28;20066;-88
2023/04/17 08:05:35;;;;;;;7.72;5.20;;;;;;;;;;5059401;28;20032;-88
2023/04/17 08:08:00;;;;;;;7.57;5.53;;;;;;;;;;5095508;28;20056;-89
2023/04/17 08:10:29;;;;;;;7.18;5.00;;;;;;;;;;5093344;28;20111;-89
2023/04/17 08:12:55;;;;;;;7.97;6.13;;;;;;;;;;5075359;28;20028;-87
2023/04/17 08:15:20;;;;;;;9.70;6.95;;;;;;;;;;5058476;28;20036;-89
2023/04/17 08:17:46;;;;;;;8.35;5.78;;;;;;;;;;5042082;28;20032;-88
2023/04/17 08:20:12;;;;;;;9.52;6.03;;;;;;;;;;5075384;28;20032;-88
2023/04/17 08:22:41;;;;;;;10.68;5.97;;;;;;;;;;5075774;28;20371;-87
2023/04/17 08:25:10;;;;;;;8.07;6.32;;;;;;;;;;5093476;28;20424;-88
2023/04/17 08:27:37;;;;;;;6.22;5.13;;;;;;;;;;5093590;28;20024;-88
2023/04/17 08:30:05;;;;;;;8.48;5.65;;;;;;;;;;5075629;28;20024;-88
2023/04/17 08:32:56;;;;;;;8.18;5.07;;;;;;;;;;5058598;28;20093;-90
2023/04/17 08:35:21;;;;;;;7.22;5.32;;;;;;;;;;5093771;28;20372;-87
2023/04/17 08:37:47;;;;;;;7.82;4.93;;;;;;;;;;5058553;28;20063;-87
2023/04/17 08:40:13;;;;;;;10.63;4.93;;;;;;;;;;5058951;28;20074;-86
2023/04/17 08:42:40;;;;;;;7.45;4.88;;;;;;;;;;5075483;28;20103;-88
2023/04/17 08:45:11;;;;;;;6.47;5.10;;;;;;;;;;5058605;28;20109;-88
2023/04/17 08:47:40;;;;;;;7.38;5.22;;;;;;;;;;5075571;28;20036;-88
2023/04/17 08:50:08;;;;;;;6.35;4.88;;;;;;;;;;5059628;28;20035;-87
2023/04/17 08:52:46;;;;;;;5.55;5.05;;;;;;;;;;5060100;28;20039;-88
2023/04/17 08:55:13;;;;;;;6.97;5.40;;;;;;;;;;5076637;28;20066;-88
2023/04/17 08:57:59;;;;;;;8.43;5.78;;;;;;;;;;5075493;28;20389;-88
2023/04/17 09:00:28;;;;;;;7.78;5.10;;;;;;;;;;5060531;28;20024;-88
2023/04/17 09:02:55;;;;;;;6.72;5.25;;;;;;;;;;5062250;28;20383;-88
2023/04/17 09:05:22;;;;;;;5.78;4.90;;;;;;;;;;5063016;28;20496;-88
2023/04/17 09:07:49;;;;;;;5.78;5.05;;;;;;;;;;5071795;28;20510;-88
2023/04/17 09:10:15;;;;;;;7.57;5.40;;;;;;;;;;5059644;28;20040;-88
2023/04/17 09:12:40;;;;;;;5.68;4.90;;;;;;;;;;5058725;28;20091;-89
2023/04/17 09:15:16;;;;;;;6.43;4.97;;;;;;;;;;5059605;28;20391;-90
2023/04/17 09:17:41;;;;;;;7.75;5.35;;;;;;;;;;5060590;28;20114;-89
2023/04/17 09:20:10;;;;;;;6.50;5.07;;;;;;;;;;5060191;28;20025;-89
2023/04/17 09:22:39;;;;;;;6.30;5.15;;;;;;;;;;5061742;28;20094;-89
2023/04/17 09:25:15;;;;;;;6.03;4.80;;;;;;;;;;5042932;28;20055;-89
2023/04/17 09:27:40;;;;;;;5.90;4.88;;;;;;;;;;5043350;28;20479;-89
2023/04/17 09:30:06;;;;;;;6.45;5.32;;;;;;;;;;5076936;28;20029;-88
2023/04/17 09:32:32;;;;;;;5.93;4.82;;;;;;;;;;5058330;28;20094;-88
2023/04/17 09:35:00;;;;;;;6.90;5.78;;;;;;;;;;5042129;28;20028;-88
2023/04/17 09:37:38;;;;;;;6.15;4.85;;;;;;;;;;5058692;28;20021;-88
2023/04/17 09:40:06;;;;;;;6.20;5.13;;;;;;;;;;5041679;28;20075;-89
2023/04/17 09:42:32;;;;;;;6.82;5.47;;;;;;;;;;5042067;28;20052;-89
2023/04/17 09:45:16;;;;;;;8.00;5.60;;;;;;;;;;5041660;28;20036;-88
2023/04/17 09:47:46;;;;;;;6.45;5.20;;;;;;;;;;5058413;28;20040;-89
2023/04/17 09:50:16;;;;;;;6.90;5.32;;;;;;;;;;5043126;28;20123;-89
2023/04/17 09:52:42;;;;;;;6.03;5.22;;;;;;;;;;5079406;28;20040;-88
2023/04/17 09:55:09;;;;;;;6.03;5.20;;;;;;;;;;5061012;28;20029;-89
2023/04/17 09:57:37;;;;;;;7.68;5.70;;;;;;;;;;5042022;28;20112;-89
2023/04/17 10:00:05;;;;;;;6.75;5.65;;;;;;;;;;5058929;28;20016;-90
2023/04/17 10:02:31;;;;;;;5.80;5.20;;;;;;;;;;5058648;28;20036;-89
2023/04/17 10:04:57;;;;;;;6.55;5.32;;;;;;;;;;5041717;28;20024;-90
2023/04/17 10:07:22;;;;;;;7.13;5.57;;;;;;;;;;5061908;28;20067;-87
2023/04/17 10:09:48;;;;;;;8.52;5.55;;;;;;;;;;5077753;28;20028;-87
2023/04/17 10:12:17;;;;;;;8.57;5.70;;;;;;;;;;5076579;28;20028;-89
2023/04/17 10:14:48;;;;;;;6.72;5.57;;;;;;;;;;5060699;28;20028;-90
2023/04/17 10:17:36;;;;;;;6.70;5.47;;;;;;;;;;5078401;28;20486;-88
2023/04/17 10:20:23;;;;;;;6.88;5.60;;;;;;;;;;5044891;28;20030;-86
2023/04/17 10:22:55;;;;;;;7.97;5.63;;;;;;;;;;5037291;28;20044;-86
2023/04/17 10:25:27;;;;;;;6.80;5.50;;;;;;;;;;5021655;28;20087;-86
2023/04/17 10:28:00;;;;;;;5.32;4.78;;;;;;;;;;5020920;28;20032;-86
2023/04/17 10:30:50;;;;;;;6.20;5.40;;;;;;;;;;5021137;28;20025;-87
2023/04/17 10:33:19;;;;;;;6.80;5.10;;;;;;;;;;5020906;28;20565;-87
2023/04/17 10:35:45;;;;;;;6.20;5.20;;;;;;;;;;5054924;28;20067;-87
2023/04/17 10:38:11;;;;;;;6.20;5.50;;;;;;;;;;5054918;28;20037;-86
2023/04/17 10:40:37;;;;;;;5.28;4.65;;;;;;;;;;5053671;28;20479;-86
2023/04/17 10:43:19;;;;;;;5.88;5.00;;;;;;;;;;5036944;28;20032;-86
2023/04/17 10:45:54;;;;;;;5.45;4.90;;;;;;;;;;5038173;28;20085;-86
2023/04/17 10:48:21;;;;;;;6.63;5.45;;;;;;;;;;5054640;28;20116;-86
2023/04/17 10:50:46;;;;;;;8.40;6.32;;;;;;;;;;5056881;28;20025;-86
2023/04/17 10:53:36;;;;;;;7.35;5.90;;;;;;;;;;5021858;28;20040;-86
2023/04/17 10:56:02;;;;;;;7.03;5.75;;;;;;;;;;5053765;28;20025;-86
2023/04/17 10:58:28;;;;;;;11.07;6.15;;;;;;;;;;5054036;28;20025;-87
2023/04/17 11:00:54;;;;;;;12.82;6.13;;;;;;;;;;5055542;28;20021;-86
2023/04/17 11:03:21;;;;;;;6.80;5.95;;;;;;;;;;5038089;28;20090;-87
2023/04/17 11:05:47;;;;;;;8.15;6.28;;;;;;;;;;5055169;28;20032;-86
2023/04/17 11:08:13;;;;;;;7.85;5.95;;;;;;;;;;5076612;28;20059;-87
2023/04/17 11:10:39;;;;;;;11.15;5.78;;;;;;;;;;5076498;28;20177;-87
2023/04/17 11:13:04;;;;;;;9.57;5.57;;;;;;;;;;5076441;28;20032;-86
2023/04/17 11:15:33;;;;;;;10.73;5.90;;;;;;;;;;5042957;28;20047;-87
2023/04/17 11:17:59;;;;;;;8.60;5.97;;;;;;;;;;5076503;28;20027;-86
2023/04/17 11:20:29;;;;;;;8.93;6.00;;;;;;;;;;5059798;28;20539;-86
2023/04/17 11:22:59;;;;;;;7.10;5.50;;;;;;;;;;5076196;28;20063;-86
2023/04/17 11:25:29;;;;;;;8.40;5.53;;;;;;;;;;5076820;28;20027;-86
2023/04/17 11:28:02;;;;;;;8.00;5.50;;;;;;;;;;5059789;28;20020;-87
2023/04/17 11:30:33;;;;;;;7.88;5.30;;;;;;;;;;5059448;28;20039;-87
2023/04/17 11:33:04;;;;;;;8.02;5.57;;;;;;;;;;5076187;28;20034;-88
2023/04/17 11:35:35;;;;;;;7.07;5.93;;;;;;;;;;5094113;28;20444;-87
2023/04/17 11:38:16;;;;;;;8.20;5.50;;;;;;;;;;5094028;28;20047;-87
2023/04/17 11:40:52;;;;;;;6.57;5.25;;;;;;;;;;5075766;28;20085;-88
2023/04/17 11:43:19;;;;;;;8.20;5.57;;;;;;;;;;5076442;28;20028;-87
2023/04/17 11:45:47;;;;;;;8.20;5.10;;;;;;;;;;5076123;28;20074;-86
2023/04/17 11:48:14;;;;;;;6.35;5.15;;;;;;;;;;5075838;28;20455;-86
2023/04/17 11:50:41;;;;;;;8.05;5.25;;;;;;;;;;5075761;28;20089;-87
2023/04/17 11:53:06;;;;;;;6.45;5.35;;;;;;;;;;5075953;28;20036;-86
2023/04/17 11:55:33;;;;;;;6.35;4.90;;;;;;;;;;5076114;28;20031;-87
2023/04/17 11:58:05;;;;;;;6.28;4.78;;;;;;;;;;5076812;28;20383;-87
2023/04/17 12:00:30;;;;;;;5.60;5.00;;;;;;;;;;5075848;28;20012;-87
2023/04/17 12:02:57;;;;;;;5.32;4.57;;;;;;;;;;5075678;28;20046;-86
2023/04/17 12:05:25;;;;;;;8.13;5.40;;;;;;;;;;5077936;28;20364;-87
2023/04/17 12:08:06;;;;;;;6.82;4.80;;;;;;;;;;5058656;28;20052;-86
2023/04/17 12:10:50;;;;;;;5.15;4.65;;;;;;;;;;5093540;28;20081;-87
2023/04/17 12:13:15;;;;;;;5.55;4.40;;;;;;;;;;5075748;28;20039;-88
2023/04/17 12:15:41;;;;;;;5.22;4.72;;;;;;;;;;5058675;28;20040;-87
2023/04/17 12:18:08;;;;;;;5.63;4.65;;;;;;;;;;5075477;28;20031;-87
2023/04/17 12:20:34;;;;;;;6.50;4.70;;;;;;;;;;5059296;28;20036;-88
2023/04/17 12:23:00;;;;;;;7.78;4.68;;;;;;;;;;5094639;28;20397;-87
2023/04/17 12:25:25;;;;;;;6.40;4.88;;;;;;;;;;5075467;28;20024;-87
2023/04/17 12:27:51;;;;;;;5.90;4.57;;;;;;;;;;5042334;28;20036;-87
2023/04/17 12:30:16;;;;;;;5.63;4.75;;;;;;;;;;5042076;28;20031;-86
2023/04/17 12:32:47;;;;;;;5.35;4.60;;;;;;;;;;5075345;28;20080;-87
2023/04/17 12:35:15;;;;;;;5.60;4.72;;;;;;;;;;5095367;28;20478;-87
2023/04/17 12:37:47;;;;;;;5.63;3.97;;;;;;;;;;5079568;28;20032;-87
2023/04/17 12:40:22;;;;;;;5.72;4.60;;;;;;;;;;5063672;28;20028;-86
2023/04/17 12:42:48;;;;;;;6.13;4.32;;;;;;;;;;5079433;28;20156;-87
2023/04/17 12:45:14;;;;;;;4.63;4.22;;;;;;;;;;5079395;28;20115;-86
2023/04/17 12:47:40;;;;;;;5.45;4.22;;;;;;;;;;5062723;28;20028;-86
2023/04/17 12:50:06;;;;;;;4.47;4.07;;;;;;;;;;5045913;28;20039;-85
2023/04/17 12:52:31;;;;;;;4.30;3.88;;;;;;;;;;5071029;28;20379;-86
2023/04/17 12:54:58;;;;;;;5.07;4.07;;;;;;;;;;5063036;28;20107;-86
2023/04/17 12:57:25;;;;;;;5.38;4.57;;;;;;;;;;5071460;28;20069;-86
2023/04/17 12:59:51;;;;;;;8.43;4.45;;;;;;;;;;5064454;28;20032;-86
2023/04/17 13:02:19;;;;;;;4.63;3.70;;;;;;;;;;5079327;28;20098;-86
2023/04/17 13:04:55;;;;;;;5.00;3.92;;;;;;;;;;5079491;28;20125;-85
2023/04/17 13:07:20;;;;;;;4.18;3.78;;;;;;;;;;5062523;28;20044;-87
2023/04/17 13:09:46;;;;;;;5.10;3.72;;;;;;;;;;5079547;28;20463;-87
2023/04/17 13:12:12;;;;;;;4.22;3.83;;;;;;;;;;5087312;28;20028;-86
2023/04/17 13:14:38;;;;;;;4.43;3.63;;;;;;;;;;5081757;28;20032;-86
2023/04/17 13:17:03;;;;;;;4.65;4.15;;;;;;;;;;5080980;28;20048;-88
2023/04/17 13:19:33;;;;;;;4.57;3.80;;;;;;;;;;5062202;28;20051;-86
2023/04/17 13:21:58;;;;;;;3.53;3.22;;;;;;;;;;5079080;28;20036;-87
2023/04/17 13:24:24;;;;;;;4.35;3.53;;;;;;;;;;5079291;28;20028;-86
2023/04/17 13:26:49;;;;;;;3.50;3.20;;;;;;;;;;5096787;28;20530;-84
2023/04/17 13:29:15;;;;;;;4.45;3.75;;;;;;;;;;5079242;28;20038;-84
2023/04/17 13:31:40;;;;;;;3.90;3.50;;;;;;;;;;5078813;28;20036;-84
2023/04/17 13:34:06;;;;;;;3.97;3.58;;;;;;;;;;5078508;28;20359;-84
2023/04/17 13:36:31;;;;;;;4.35;3.47;;;;;;;;;;5078369;28;20036;-85
2023/04/17 13:38:57;;;;;;;3.65;3.35;;;;;;;;;;5096578;28;20504;-86
2023/04/17 13:41:22;;;;;;;4.72;3.45;;;;;;;;;;5078289;28;20503;-85
2023/04/17 13:43:48;;;;;;;3.88;3.17;;;;;;;;;;5077993;28;20437;-85
2023/04/17 13:46:14;;;;;;;3.65;3.17;;;;;;;;;;5061218;28;20020;-85
2023/04/17 13:48:44;;;;;;;3.80;3.33;;;;;;;;;;5096327;28;20054;-85
2023/04/17 13:51:09;;;;;;;4.55;3.50;;;;;;;;;;5061251;28;20063;-86
2023/04/17 13:53:35;;;;;;;3.78;3.10;;;;;;;;;;5096914;28;20072;-85
2023/04/17 13:56:01;;;;;;;3.97;3.58;;;;;;;;;;5078108;28;20093;-85
2023/04/17 13:58:27;;;;;;;3.60;3.30;;;;;;;;;;5078272;28;20035;-85
2023/04/17 14:00:52;;;;;;;3.67;3.35;;;;;;;;;;5061072;28;20024;-85
2023/04/17 14:03:17;;;;;;;4.15;3.33;;;;;;;;;;5061118;28;20449;-85
2023/04/17 14:05:43;;;;;;;4.30;3.53;;;;;;;;;;5095790;28;20498;-84
2023/04/17 14:08:08;;;;;;;3.30;3.00;;;;;;;;;;5095914;28;20082;-85
2023/04/17 14:10:34;;;;;;;3.97;3.38;;;;;;;;;;5077788;28;20029;-85
2023/04/17 14:12:59;;;;;;;3.97;3.33;;;;;;;;;;5077914;28;20028;-84
2023/04/17 14:15:25;;;;;;;3.17;2.88;;;;;;;;;;5077646;28;20494;-85
2023/04/17 14:17:50;;;;;;;3.92;3.03;;;;;;;;;;5077811;28;20437;-85
2023/04/17 14:20:18;;;;;;;4.18;3.08;;;;;;;;;;5077744;28;20548;-85
2023/04/17 14:22:44;;;;;;;3.40;3.10;;;;;;;;;;5061234;28;20436;-86
2023/04/17 14:25:10;;;;;;;3.75;3.28;;;;;;;;;;5077481;28;20028;-85
2023/04/17 14:27:35;;;;;;;3.70;3.30;;;;;;;;;;5077831;28;20032;-85
2023/04/17 14:30:01;;;;;;;4.05;3.47;;;;;;;;;;5095837;28;20543;-84
2023/04/17 14:32:26;;;;;;;11.75;5.65;;;;;;;;;;5077412;28;20039;-85
2023/04/17 14:34:52;;;;;;;9.98;5.82;;;;;;;;;;5077678;28;20028;-86
2023/04/17 14:37:17;;;;;;;7.53;4.85;;;;;;;;;;5044031;28;20402;-86
2023/04/17 14:39:42;;;;;;;11.57;5.80;;;;;;;;;;5095664;28;20043;-84
2023/04/17 14:42:08;;;;;;;13.25;5.57;;;;;;;;;;5062484;28;20021;-90